TAF and METAR

Could not understand the following METAR

YNWN 011800Z AUTO 15004KT 0450 // ////// 22/M04 Q1010
No TAF available for Newman Airport